Skyway, Washington
Current Conditions -  °F | °C
As of 1:53 AM on Sunday 23 Nov 2014 (Local Time) from KRNT Reporting Station
Light Rain Light Rain  
Wind Chill: 45°   Ceiling: 3000
Heat Index: 48°   Visibility: 7mi
Dew Point: 44°   Wind: 7mph
Humidity: 86%   Direction: 140°SE
Pressure: 30.16"   Gusts: NA
Location:  47.4965°N, 122.251°W
Report Text: KRNT 230953Z AUTO 14006KT 7SM -RA SCT018 BKN030 OVC044 09/07 A3016 RMK AO2 RAB04 SLP219 P0000 T00890067
Loading
Personal Weather Stations






























Interactive Weather Map New forecast layout! Learn more

10-Day Weather Forecast

Advertisements
Track Severe Weather on mobile